sensor_id;sensor_type;location;lat;lon;timestamp;temperature;humidity
52869;DHT22;39100;53.480;6.158;2023-04-24T00:00:24;11.00;99.90
52869;DHT22;39100;53.480;6.158;2023-04-24T00:02:49;11.10;99.90
52869;DHT22;39100;53.480;6.158;2023-04-24T00:05:16;11.10;99.90
52869;DHT22;39100;53.480;6.158;2023-04-24T00:07:43;11.10;99.90
52869;DHT22;39100;53.480;6.158;2023-04-24T00:10:10;11.10;99.90
52869;DHT22;39100;53.480;6.158;2023-04-24T00:12:36;11.10;99.90
52869;DHT22;39100;53.480;6.158;2023-04-24T00:15:02;11.10;99.90
52869;DHT22;39100;53.480;6.158;2023-04-24T00:17:28;11.10;99.90
52869;DHT22;39100;53.480;6.158;2023-04-24T00:19:54;11.10;99.90
52869;DHT22;39100;53.480;6.158;2023-04-24T00:22:27;11.00;99.90
52869;DHT22;39100;53.480;6.158;2023-04-24T00:24:53;11.10;99.90
52869;DHT22;39100;53.480;6.158;2023-04-24T00:27:18;11.10;99.90
52869;DHT22;39100;53.480;6.158;2023-04-24T00:29:44;11.10;99.90
52869;DHT22;39100;53.480;6.158;2023-04-24T00:32:10;11.10;99.90
52869;DHT22;39100;53.480;6.158;2023-04-24T00:34:35;11.20;99.90
52869;DHT22;39100;53.480;6.158;2023-04-24T00:37:16;11.10;99.90
52869;DHT22;39100;53.480;6.158;2023-04-24T00:39:41;11.20;99.90
52869;DHT22;39100;53.480;6.158;2023-04-24T00:42:07;11.20;99.90
52869;DHT22;39100;53.480;6.158;2023-04-24T00:44:33;11.20;99.90
52869;DHT22;39100;53.480;6.158;2023-04-24T00:47:00;11.10;99.90
52869;DHT22;39100;53.480;6.158;2023-04-24T00:49:26;11.20;99.90
52869;DHT22;39100;53.480;6.158;2023-04-24T00:51:52;11.20;99.90
52869;DHT22;39100;53.480;6.158;2023-04-24T00:54:19;11.20;99.90
52869;DHT22;39100;53.480;6.158;2023-04-24T00:56:45;11.20;99.90
52869;DHT22;39100;53.480;6.158;2023-04-24T00:59:12;11.20;99.90
52869;DHT22;39100;53.480;6.158;2023-04-24T01:01:39;11.20;99.90
52869;DHT22;39100;53.480;6.158;2023-04-24T01:04:07;11.10;99.90
52869;DHT22;39100;53.480;6.158;2023-04-24T01:06:35;11.20;99.90
52869;DHT22;39100;53.480;6.158;2023-04-24T01:09:02;11.20;99.90
52869;DHT22;39100;53.480;6.158;2023-04-24T01:11:28;11.20;99.90
52869;DHT22;39100;53.480;6.158;2023-04-24T01:13:55;11.10;99.90
52869;DHT22;39100;53.480;6.158;2023-04-24T01:16:21;11.20;99.90
52869;DHT22;39100;53.480;6.158;2023-04-24T01:18:47;11.20;99.90
52869;DHT22;39100;53.480;6.158;2023-04-24T01:21:16;11.10;99.90
52869;DHT22;39100;53.480;6.158;2023-04-24T01:23:44;11.20;99.90
52869;DHT22;39100;53.480;6.158;2023-04-24T01:26:09;11.10;99.90
52869;DHT22;39100;53.480;6.158;2023-04-24T01:28:35;11.10;99.90
52869;DHT22;39100;53.480;6.158;2023-04-24T01:31:01;11.10;99.90
52869;DHT22;39100;53.480;6.158;2023-04-24T01:33:26;11.00;99.90
52869;DHT22;39100;53.480;6.158;2023-04-24T01:35:52;11.10;99.90
52869;DHT22;39100;53.480;6.158;2023-04-24T01:38:18;11.10;99.90
52869;DHT22;39100;53.480;6.158;2023-04-24T01:40:43;11.10;99.90
52869;DHT22;39100;53.480;6.158;2023-04-24T01:43:09;11.10;99.90
52869;DHT22;39100;53.480;6.158;2023-04-24T01:45:34;11.10;99.90
52869;DHT22;39100;53.480;6.158;2023-04-24T01:48:00;11.00;99.90
52869;DHT22;39100;53.480;6.158;2023-04-24T01:50:26;11.00;99.90
52869;DHT22;39100;53.480;6.158;2023-04-24T01:52:52;11.00;99.90
52869;DHT22;39100;53.480;6.158;2023-04-24T01:55:17;11.00;99.90
52869;DHT22;39100;53.480;6.158;2023-04-24T01:57:43;11.10;99.90
52869;DHT22;39100;53.480;6.158;2023-04-24T02:00:09;11.00;99.90
52869;DHT22;39100;53.480;6.158;2023-04-24T02:02:38;11.10;99.90
52869;DHT22;39100;53.480;6.158;2023-04-24T02:05:06;11.10;99.90
52869;DHT22;39100;53.480;6.158;2023-04-24T02:07:31;11.00;99.90
52869;DHT22;39100;53.480;6.158;2023-04-24T02:09:58;11.10;99.90
52869;DHT22;39100;53.480;6.158;2023-04-24T02:12:23;11.00;99.90
52869;DHT22;39100;53.480;6.158;2023-04-24T02:14:49;11.10;99.90
52869;DHT22;39100;53.480;6.158;2023-04-24T02:17:14;11.00;99.90
52869;DHT22;39100;53.480;6.158;2023-04-24T02:19:41;11.00;99.90
52869;DHT22;39100;53.480;6.158;2023-04-24T02:22:07;11.00;99.90
52869;DHT22;39100;53.480;6.158;2023-04-24T02:24:32;11.00;99.90
52869;DHT22;39100;53.480;6.158;2023-04-24T02:26:58;11.00;99.90
52869;DHT22;39100;53.480;6.158;2023-04-24T02:29:24;11.00;99.90
52869;DHT22;39100;53.480;6.158;2023-04-24T02:31:49;11.00;99.90
52869;DHT22;39100;53.480;6.158;2023-04-24T02:34:15;10.90;99.90
52869;DHT22;39100;53.480;6.158;2023-04-24T02:36:41;10.90;99.90
52869;DHT22;39100;53.480;6.158;2023-04-24T02:39:07;10.90;99.90
52869;DHT22;39100;53.480;6.158;2023-04-24T02:41:33;10.90;99.90
52869;DHT22;39100;53.480;6.158;2023-04-24T02:43:58;10.90;99.90
52869;DHT22;39100;53.480;6.158;2023-04-24T02:46:24;10.90;99.90
52869;DHT22;39100;53.480;6.158;2023-04-24T02:48:50;10.80;99.90
52869;DHT22;39100;53.480;6.158;2023-04-24T02:51:16;10.80;99.90
52869;DHT22;39100;53.480;6.158;2023-04-24T02:53:41;10.80;99.90
52869;DHT22;39100;53.480;6.158;2023-04-24T02:56:07;10.80;99.90
52869;DHT22;39100;53.480;6.158;2023-04-24T02:58:32;10.80;99.90
52869;DHT22;39100;53.480;6.158;2023-04-24T03:00:58;10.80;99.90
52869;DHT22;39100;53.480;6.158;2023-04-24T03:03:24;10.70;99.90
52869;DHT22;39100;53.480;6.158;2023-04-24T03:05:50;10.80;99.90
52869;DHT22;39100;53.480;6.158;2023-04-24T03:08:16;10.70;99.90
52869;DHT22;39100;53.480;6.158;2023-04-24T03:10:41;10.70;99.90
52869;DHT22;39100;53.480;6.158;2023-04-24T03:13:07;10.70;99.90
52869;DHT22;39100;53.480;6.158;2023-04-24T03:15:32;10.70;99.90
52869;DHT22;39100;53.480;6.158;2023-04-24T03:17:58;10.70;99.90
52869;DHT22;39100;53.480;6.158;2023-04-24T03:20:24;10.70;99.90
52869;DHT22;39100;53.480;6.158;2023-04-24T03:22:49;10.60;99.90
52869;DHT22;39100;53.480;6.158;2023-04-24T03:25:15;10.60;99.90
52869;DHT22;39100;53.480;6.158;2023-04-24T03:27:40;10.60;99.90
52869;DHT22;39100;53.480;6.158;2023-04-24T03:30:07;10.50;99.90
52869;DHT22;39100;53.480;6.158;2023-04-24T03:32:33;10.50;99.90
52869;DHT22;39100;53.480;6.158;2023-04-24T03:34:58;10.50;99.90
52869;DHT22;39100;53.480;6.158;2023-04-24T03:37:24;10.50;99.90
52869;DHT22;39100;53.480;6.158;2023-04-24T03:39:50;10.50;99.90
52869;DHT22;39100;53.480;6.158;2023-04-24T03:42:15;10.40;99.90
52869;DHT22;39100;53.480;6.158;2023-04-24T03:44:41;10.40;99.90
52869;DHT22;39100;53.480;6.158;2023-04-24T03:47:06;10.40;99.90
52869;DHT22;39100;53.480;6.158;2023-04-24T03:49:32;10.40;99.90
52869;DHT22;39100;53.480;6.158;2023-04-24T03:51:57;10.40;99.90
52869;DHT22;39100;53.480;6.158;2023-04-24T03:54:23;10.40;99.90
52869;DHT22;39100;53.480;6.158;2023-04-24T03:56:49;10.40;99.90
52869;DHT22;39100;53.480;6.158;2023-04-24T03:59:14;10.30;99.90
52869;DHT22;39100;53.480;6.158;2023-04-24T04:01:40;10.30;99.90
52869;DHT22;39100;53.480;6.158;2023-04-24T04:04:06;10.30;99.90
52869;DHT22;39100;53.480;6.158;2023-04-24T04:06:33;10.30;99.90
52869;DHT22;39100;53.480;6.158;2023-04-24T04:08:59;10.30;99.90
52869;DHT22;39100;53.480;6.158;2023-04-24T04:11:25;10.30;99.90
52869;DHT22;39100;53.480;6.158;2023-04-24T04:13:51;10.30;99.90
52869;DHT22;39100;53.480;6.158;2023-04-24T04:16:16;10.40;99.90
52869;DHT22;39100;53.480;6.158;2023-04-24T04:18:43;10.30;99.90
52869;DHT22;39100;53.480;6.158;2023-04-24T04:21:08;10.30;99.90
52869;DHT22;39100;53.480;6.158;2023-04-24T04:23:34;10.30;99.90
52869;DHT22;39100;53.480;6.158;2023-04-24T04:26:00;10.30;99.90
52869;DHT22;39100;53.480;6.158;2023-04-24T04:28:26;10.30;99.90
52869;DHT22;39100;53.480;6.158;2023-04-24T04:30:52;10.30;99.90
52869;DHT22;39100;53.480;6.158;2023-04-24T04:33:20;10.20;99.90
52869;DHT22;39100;53.480;6.158;2023-04-24T04:35:46;10.20;99.90
52869;DHT22;39100;53.480;6.158;2023-04-24T04:38:14;10.20;99.90
52869;DHT22;39100;53.480;6.158;2023-04-24T04:40:40;10.20;99.90
52869;DHT22;39100;53.480;6.158;2023-04-24T04:43:06;10.20;99.90
52869;DHT22;39100;53.480;6.158;2023-04-24T04:45:32;10.20;99.90
52869;DHT22;39100;53.480;6.158;2023-04-24T04:47:59;10.20;99.90
52869;DHT22;39100;53.480;6.158;2023-04-24T04:50:26;10.20;99.90
52869;DHT22;39100;53.480;6.158;2023-04-24T04:52:52;10.10;99.90
52869;DHT22;39100;53.480;6.158;2023-04-24T04:55:18;10.10;99.90
52869;DHT22;39100;53.480;6.158;2023-04-24T04:57:48;10.10;99.90
52869;DHT22;39100;53.480;6.158;2023-04-24T05:00:13;10.10;99.90
52869;DHT22;39100;53.480;6.158;2023-04-24T05:02:39;10.10;99.90
52869;DHT22;39100;53.480;6.158;2023-04-24T05:05:06;10.10;99.90
52869;DHT22;39100;53.480;6.158;2023-04-24T05:07:32;10.10;99.90
52869;DHT22;39100;53.480;6.158;2023-04-24T05:09:57;10.10;99.90
52869;DHT22;39100;53.480;6.158;2023-04-24T05:12:23;10.10;99.90
52869;DHT22;39100;53.480;6.158;2023-04-24T05:14:48;10.10;99.90
52869;DHT22;39100;53.480;6.158;2023-04-24T05:17:15;10.10;99.90
52869;DHT22;39100;53.480;6.158;2023-04-24T05:19:41;10.10;99.90
52869;DHT22;39100;53.480;6.158;2023-04-24T05:22:06;10.10;99.90
52869;DHT22;39100;53.480;6.158;2023-04-24T05:24:35;10.00;99.90
52869;DHT22;39100;53.480;6.158;2023-04-24T05:27:02;10.10;99.90
52869;DHT22;39100;53.480;6.158;2023-04-24T05:29:30;10.50;99.90
52869;DHT22;39100;53.480;6.158;2023-04-24T05:31:57;10.00;99.90
52869;DHT22;39100;53.480;6.158;2023-04-24T05:34:22;10.00;99.90
52869;DHT22;39100;53.480;6.158;2023-04-24T05:36:48;10.00;99.90
52869;DHT22;39100;53.480;6.158;2023-04-24T05:39:14;10.00;99.90
52869;DHT22;39100;53.480;6.158;2023-04-24T05:41:40;10.00;99.90
52869;DHT22;39100;53.480;6.158;2023-04-24T05:44:06;9.90;99.90
52869;DHT22;39100;53.480;6.158;2023-04-24T05:46:31;10.00;99.90
52869;DHT22;39100;53.480;6.158;2023-04-24T05:48:57;10.40;99.90
52869;DHT22;39100;53.480;6.158;2023-04-24T05:51:23;10.00;99.90
52869;DHT22;39100;53.480;6.158;2023-04-24T05:53:49;10.00;99.90
52869;DHT22;39100;53.480;6.158;2023-04-24T05:56:15;10.00;99.90
52869;DHT22;39100;53.480;6.158;2023-04-24T05:58:41;10.00;99.90
52869;DHT22;39100;53.480;6.158;2023-04-24T06:01:07;10.00;99.90
52869;DHT22;39100;53.480;6.158;2023-04-24T06:03:32;10.00;99.90
52869;DHT22;39100;53.480;6.158;2023-04-24T06:05:58;10.00;99.90
52869;DHT22;39100;53.480;6.158;2023-04-24T06:08:23;10.10;99.90
52869;DHT22;39100;53.480;6.158;2023-04-24T06:10:49;10.10;99.90
52869;DHT22;39100;53.480;6.158;2023-04-24T06:13:15;10.10;99.90
52869;DHT22;39100;53.480;6.158;2023-04-24T06:15:41;10.10;99.90
52869;DHT22;39100;53.480;6.158;2023-04-24T06:18:07;10.10;99.90
52869;DHT22;39100;53.480;6.158;2023-04-24T06:20:35;10.10;99.90
52869;DHT22;39100;53.480;6.158;2023-04-24T06:23:01;10.10;99.90
52869;DHT22;39100;53.480;6.158;2023-04-24T06:25:27;10.00;99.90
52869;DHT22;39100;53.480;6.158;2023-04-24T06:27:54;10.00;99.90
52869;DHT22;39100;53.480;6.158;2023-04-24T06:30:19;10.10;99.90
52869;DHT22;39100;53.480;6.158;2023-04-24T06:32:45;10.10;99.90
52869;DHT22;39100;53.480;6.158;2023-04-24T06:35:10;10.10;99.90
52869;DHT22;39100;53.480;6.158;2023-04-24T06:37:41;10.00;99.90
52869;DHT22;39100;53.480;6.158;2023-04-24T06:40:07;10.00;99.90
52869;DHT22;39100;53.480;6.158;2023-04-24T06:42:33;10.00;99.90
52869;DHT22;39100;53.480;6.158;2023-04-24T06:45:00;10.30;99.90
52869;DHT22;39100;53.480;6.158;2023-04-24T06:47:26;10.00;99.90
52869;DHT22;39100;53.480;6.158;2023-04-24T06:49:51;9.90;99.90
52869;DHT22;39100;53.480;6.158;2023-04-24T06:52:18;9.90;99.90
52869;DHT22;39100;53.480;6.158;2023-04-24T06:54:43;9.90;99.90
52869;DHT22;39100;53.480;6.158;2023-04-24T06:57:09;9.80;99.90
52869;DHT22;39100;53.480;6.158;2023-04-24T06:59:36;9.80;99.90
52869;DHT22;39100;53.480;6.158;2023-04-24T07:02:01;9.80;99.90
52869;DHT22;39100;53.480;6.158;2023-04-24T07:04:28;9.80;99.90
52869;DHT22;39100;53.480;6.158;2023-04-24T07:06:54;9.80;99.90
52869;DHT22;39100;53.480;6.158;2023-04-24T07:09:22;9.80;99.90
52869;DHT22;39100;53.480;6.158;2023-04-24T07:11:49;9.70;99.90
52869;DHT22;39100;53.480;6.158;2023-04-24T07:14:15;9.70;99.90
52869;DHT22;39100;53.480;6.158;2023-04-24T07:16:40;9.70;99.90
52869;DHT22;39100;53.480;6.158;2023-04-24T07:19:07;9.80;99.90
52869;DHT22;39100;53.480;6.158;2023-04-24T07:21:32;9.70;99.90
52869;DHT22;39100;53.480;6.158;2023-04-24T07:23:58;9.80;99.90
52869;DHT22;39100;53.480;6.158;2023-04-24T07:26:25;9.80;99.90
52869;DHT22;39100;53.480;6.158;2023-04-24T07:28:50;9.70;99.90
52869;DHT22;39100;53.480;6.158;2023-04-24T07:31:16;9.70;99.90
52869;DHT22;39100;53.480;6.158;2023-04-24T07:33:42;9.70;99.90
52869;DHT22;39100;53.480;6.158;2023-04-24T07:36:07;9.70;99.90
52869;DHT22;39100;53.480;6.158;2023-04-24T07:38:33;9.70;99.90
52869;DHT22;39100;53.480;6.158;2023-04-24T07:40:58;9.60;99.90
52869;DHT22;39100;53.480;6.158;2023-04-24T07:43:24;9.70;99.90
52869;DHT22;39100;53.480;6.158;2023-04-24T07:45:50;9.70;99.90
52869;DHT22;39100;53.480;6.158;2023-04-24T07:48:16;9.70;99.90
52869;DHT22;39100;53.480;6.158;2023-04-24T07:50:43;9.70;99.90
52869;DHT22;39100;53.480;6.158;2023-04-24T07:53:09;9.70;99.90
52869;DHT22;39100;53.480;6.158;2023-04-24T07:55:34;9.60;99.90
52869;DHT22;39100;53.480;6.158;2023-04-24T07:58:00;9.60;99.90
52869;DHT22;39100;53.480;6.158;2023-04-24T08:00:26;9.60;99.90
52869;DHT22;39100;53.480;6.158;2023-04-24T08:02:51;9.60;99.90
52869;DHT22;39100;53.480;6.158;2023-04-24T08:05:17;9.60;99.90
52869;DHT22;39100;53.480;6.158;2023-04-24T08:07:42;9.60;99.90
52869;DHT22;39100;53.480;6.158;2023-04-24T08:10:10;9.60;99.90
52869;DHT22;39100;53.480;6.158;2023-04-24T08:12:36;9.60;99.90
52869;DHT22;39100;53.480;6.158;2023-04-24T08:15:02;9.60;99.90
52869;DHT22;39100;53.480;6.158;2023-04-24T08:17:28;9.60;99.90
52869;DHT22;39100;53.480;6.158;2023-04-24T08:19:53;9.60;99.90
52869;DHT22;39100;53.480;6.158;2023-04-24T08:22:29;9.60;99.90
52869;DHT22;39100;53.480;6.158;2023-04-24T08:24:55;9.60;99.90
52869;DHT22;39100;53.480;6.158;2023-04-24T08:27:25;9.60;99.90
52869;DHT22;39100;53.480;6.158;2023-04-24T08:29:53;9.70;99.90
52869;DHT22;39100;53.480;6.158;2023-04-24T08:32:18;9.70;99.90
52869;DHT22;39100;53.480;6.158;2023-04-24T08:34:44;9.70;99.90
52869;DHT22;39100;53.480;6.158;2023-04-24T08:37:09;9.70;99.90
52869;DHT22;39100;53.480;6.158;2023-04-24T08:39:36;9.80;99.90
52869;DHT22;39100;53.480;6.158;2023-04-24T08:42:02;9.80;99.90
52869;DHT22;39100;53.480;6.158;2023-04-24T08:44:34;9.80;99.90
52869;DHT22;39100;53.480;6.158;2023-04-24T08:47:01;9.90;99.90
52869;DHT22;39100;53.480;6.158;2023-04-24T08:49:28;9.90;99.90
52869;DHT22;39100;53.480;6.158;2023-04-24T08:51:54;10.00;99.90
52869;DHT22;39100;53.480;6.158;2023-04-24T08:54:21;10.10;99.90
52869;DHT22;39100;53.480;6.158;2023-04-24T08:56:48;10.10;99.90
52869;DHT22;39100;53.480;6.158;2023-04-24T08:59:17;10.20;99.90
52869;DHT22;39100;53.480;6.158;2023-04-24T09:01:45;10.20;99.90
52869;DHT22;39100;53.480;6.158;2023-04-24T09:04:14;10.20;99.90
52869;DHT22;39100;53.480;6.158;2023-04-24T09:06:41;10.10;99.90
52869;DHT22;39100;53.480;6.158;2023-04-24T09:09:08;10.10;99.90
52869;DHT22;39100;53.480;6.158;2023-04-24T09:11:35;10.10;99.90
52869;DHT22;39100;53.480;6.158;2023-04-24T09:14:01;10.10;99.90
52869;DHT22;39100;53.480;6.158;2023-04-24T09:16:27;10.10;99.90
52869;DHT22;39100;53.480;6.158;2023-04-24T09:18:53;10.10;99.90
52869;DHT22;39100;53.480;6.158;2023-04-24T09:21:21;10.20;99.90
52869;DHT22;39100;53.480;6.158;2023-04-24T09:23:58;10.30;99.90
52869;DHT22;39100;53.480;6.158;2023-04-24T09:26:25;10.90;99.90
52869;DHT22;39100;53.480;6.158;2023-04-24T09:28:51;10.50;99.90
52869;DHT22;39100;53.480;6.158;2023-04-24T09:31:19;10.40;99.90
52869;DHT22;39100;53.480;6.158;2023-04-24T09:34:01;10.50;99.90
52869;DHT22;39100;53.480;6.158;2023-04-24T09:36:54;10.70;99.90
52869;DHT22;39100;53.480;6.158;2023-04-24T09:39:20;10.90;99.90
52869;DHT22;39100;53.480;6.158;2023-04-24T09:41:54;11.10;99.90
52869;DHT22;39100;53.480;6.158;2023-04-24T09:44:23;11.30;99.90
52869;DHT22;39100;53.480;6.158;2023-04-24T09:46:51;11.50;99.90
52869;DHT22;39100;53.480;6.158;2023-04-24T09:49:24;11.60;99.90
52869;DHT22;39100;53.480;6.158;2023-04-24T09:51:50;11.70;99.90
52869;DHT22;39100;53.480;6.158;2023-04-24T09:54:18;11.90;99.90
52869;DHT22;39100;53.480;6.158;2023-04-24T09:56:46;11.90;99.90
52869;DHT22;39100;53.480;6.158;2023-04-24T09:59:17;12.10;99.90
52869;DHT22;39100;53.480;6.158;2023-04-24T10:01:44;12.20;99.90
52869;DHT22;39100;53.480;6.158;2023-04-24T10:04:23;12.40;99.90
52869;DHT22;39100;53.480;6.158;2023-04-24T10:06:51;12.70;99.90
52869;DHT22;39100;53.480;6.158;2023-04-24T10:09:18;12.80;99.90
52869;DHT22;39100;53.480;6.158;2023-04-24T10:11:46;12.80;99.90
52869;DHT22;39100;53.480;6.158;2023-04-24T10:14:19;12.80;99.90
52869;DHT22;39100;53.480;6.158;2023-04-24T10:16:49;12.70;99.90
52869;DHT22;39100;53.480;6.158;2023-04-24T10:19:15;12.60;99.90
52869;DHT22;39100;53.480;6.158;2023-04-24T10:21:43;12.60;99.90
52869;DHT22;39100;53.480;6.158;2023-04-24T10:24:18;12.50;99.90
52869;DHT22;39100;53.480;6.158;2023-04-24T10:26:46;12.50;99.90
52869;DHT22;39100;53.480;6.158;2023-04-24T10:29:15;12.50;99.90
52869;DHT22;39100;53.480;6.158;2023-04-24T10:31:40;12.50;99.90
52869;DHT22;39100;53.480;6.158;2023-04-24T10:34:08;12.50;99.90
52869;DHT22;39100;53.480;6.158;2023-04-24T10:36:38;12.40;99.90
52869;DHT22;39100;53.480;6.158;2023-04-24T10:39:08;12.30;99.90
52869;DHT22;39100;53.480;6.158;2023-04-24T10:41:37;12.30;99.90
52869;DHT22;39100;53.480;6.158;2023-04-24T10:46:32;12.10;99.90
52869;DHT22;39100;53.480;6.158;2023-04-24T10:48:58;12.10;99.90
52869;DHT22;39100;53.480;6.158;2023-04-24T10:51:26;12.10;99.90
52869;DHT22;39100;53.480;6.158;2023-04-24T10:56:53;11.90;99.90
52869;DHT22;39100;53.480;6.158;2023-04-24T10:59:26;12.00;99.90
52869;DHT22;39100;53.480;6.158;2023-04-24T11:01:55;12.00;99.90
52869;DHT22;39100;53.480;6.158;2023-04-24T11:04:31;12.10;99.90
52869;DHT22;39100;53.480;6.158;2023-04-24T11:06:57;12.00;99.90
52869;DHT22;39100;53.480;6.158;2023-04-24T11:09:35;12.10;99.90
52869;DHT22;39100;53.480;6.158;2023-04-24T11:12:09;12.00;99.90
52869;DHT22;39100;53.480;6.158;2023-04-24T11:17:36;11.70;99.90
52869;DHT22;39100;53.480;6.158;2023-04-24T11:20:11;11.70;99.90
52869;DHT22;39100;53.480;6.158;2023-04-24T11:22:39;11.60;99.90
52869;DHT22;39100;53.480;6.158;2023-04-24T11:25:08;11.70;99.90
52869;DHT22;39100;53.480;6.158;2023-04-24T11:27:41;11.60;99.90
52869;DHT22;39100;53.480;6.158;2023-04-24T11:30:08;11.50;99.90
52869;DHT22;39100;53.480;6.158;2023-04-24T11:32:35;11.50;99.90
52869;DHT22;39100;53.480;6.158;2023-04-24T11:35:21;11.40;99.90
52869;DHT22;39100;53.480;6.158;2023-04-24T11:37:51;11.40;99.90
52869;DHT22;39100;53.480;6.158;2023-04-24T11:40:18;11.30;99.90
52869;DHT22;39100;53.480;6.158;2023-04-24T11:42:47;11.30;99.90
52869;DHT22;39100;53.480;6.158;2023-04-24T11:45:13;11.20;99.90
52869;DHT22;39100;53.480;6.158;2023-04-24T11:47:40;11.10;99.90
52869;DHT22;39100;53.480;6.158;2023-04-24T11:50:07;11.00;99.90
52869;DHT22;39100;53.480;6.158;2023-04-24T11:52:37;11.00;99.90
52869;DHT22;39100;53.480;6.158;2023-04-24T11:55:03;11.00;99.90
52869;DHT22;39100;53.480;6.158;2023-04-24T11:57:29;11.00;99.90
52869;DHT22;39100;53.480;6.158;2023-04-24T12:00:00;11.00;99.90
52869;DHT22;39100;53.480;6.158;2023-04-24T12:02:26;11.00;99.90
52869;DHT22;39100;53.480;6.158;2023-04-24T12:04:55;11.00;99.90
52869;DHT22;39100;53.480;6.158;2023-04-24T12:07:22;11.00;99.90
52869;DHT22;39100;53.480;6.158;2023-04-24T12:09:54;11.00;99.90
52869;DHT22;39100;53.480;6.158;2023-04-24T12:12:20;11.10;99.90
52869;DHT22;39100;53.480;6.158;2023-04-24T12:14:50;11.10;99.90
52869;DHT22;39100;53.480;6.158;2023-04-24T12:17:27;11.10;99.90
52869;DHT22;39100;53.480;6.158;2023-04-24T12:20:01;11.00;99.90
52869;DHT22;39100;53.480;6.158;2023-04-24T12:22:28;11.00;99.90
52869;DHT22;39100;53.480;6.158;2023-04-24T12:27:23;11.00;99.90
52869;DHT22;39100;53.480;6.158;2023-04-24T12:29:59;10.90;99.90
52869;DHT22;39100;53.480;6.158;2023-04-24T12:32:25;10.70;99.90
52869;DHT22;39100;53.480;6.158;2023-04-24T12:34:51;10.60;99.90
52869;DHT22;39100;53.480;6.158;2023-04-24T12:37:17;10.50;99.90
52869;DHT22;39100;53.480;6.158;2023-04-24T12:40:05;10.40;99.90
52869;DHT22;39100;53.480;6.158;2023-04-24T12:42:32;10.40;99.90
52869;DHT22;39100;53.480;6.158;2023-04-24T12:45:00;10.40;99.90
52869;DHT22;39100;53.480;6.158;2023-04-24T12:47:27;10.40;99.90
52869;DHT22;39100;53.480;6.158;2023-04-24T12:49:52;10.40;99.90
52869;DHT22;39100;53.480;6.158;2023-04-24T12:52:26;10.50;99.90
52869;DHT22;39100;53.480;6.158;2023-04-24T12:54:56;10.60;99.90
52869;DHT22;39100;53.480;6.158;2023-04-24T12:57:24;10.70;99.90
52869;DHT22;39100;53.480;6.158;2023-04-24T12:59:50;10.70;99.90
52869;DHT22;39100;53.480;6.158;2023-04-24T13:02:16;10.80;99.90
52869;DHT22;39100;53.480;6.158;2023-04-24T13:04:45;10.80;99.90
52869;DHT22;39100;53.480;6.158;2023-04-24T13:07:12;10.80;99.90
52869;DHT22;39100;53.480;6.158;2023-04-24T13:09:38;10.90;99.90
52869;DHT22;39100;53.480;6.158;2023-04-24T13:12:04;11.00;99.90
52869;DHT22;39100;53.480;6.158;2023-04-24T13:14:31;11.10;99.90
52869;DHT22;39100;53.480;6.158;2023-04-24T13:16:56;11.30;99.90
52869;DHT22;39100;53.480;6.158;2023-04-24T13:19:24;11.40;99.90
52869;DHT22;39100;53.480;6.158;2023-04-24T13:21:51;11.30;99.90
52869;DHT22;39100;53.480;6.158;2023-04-24T13:24:17;11.30;99.90
52869;DHT22;39100;53.480;6.158;2023-04-24T13:26:43;11.20;99.90
52869;DHT22;39100;53.480;6.158;2023-04-24T13:29:08;11.10;99.90
52869;DHT22;39100;53.480;6.158;2023-04-24T13:31:34;11.00;99.90
52869;DHT22;39100;53.480;6.158;2023-04-24T13:34:00;10.80;99.90
52869;DHT22;39100;53.480;6.158;2023-04-24T13:36:26;10.70;99.90
52869;DHT22;39100;53.480;6.158;2023-04-24T13:38:52;10.60;99.90
52869;DHT22;39100;53.480;6.158;2023-04-24T13:41:17;10.60;99.90
52869;DHT22;39100;53.480;6.158;2023-04-24T13:43:43;10.50;99.90
52869;DHT22;39100;53.480;6.158;2023-04-24T13:46:08;10.40;99.90
52869;DHT22;39100;53.480;6.158;2023-04-24T13:48:34;10.30;99.90
52869;DHT22;39100;53.480;6.158;2023-04-24T13:51:00;10.20;99.90
52869;DHT22;39100;53.480;6.158;2023-04-24T13:53:25;10.20;99.90
52869;DHT22;39100;53.480;6.158;2023-04-24T13:55:51;10.10;99.90
52869;DHT22;39100;53.480;6.158;2023-04-24T13:58:17;10.00;99.90
52869;DHT22;39100;53.480;6.158;2023-04-24T14:00:42;9.90;99.90
52869;DHT22;39100;53.480;6.158;2023-04-24T14:03:08;10.70;99.90
52869;DHT22;39100;53.480;6.158;2023-04-24T14:05:34;9.80;99.90
52869;DHT22;39100;53.480;6.158;2023-04-24T14:07:59;10.30;99.90
52869;DHT22;39100;53.480;6.158;2023-04-24T14:10:25;9.80;99.90
52869;DHT22;39100;53.480;6.158;2023-04-24T14:12:52;9.80;99.90
52869;DHT22;39100;53.480;6.158;2023-04-24T14:15:18;9.80;99.90
52869;DHT22;39100;53.480;6.158;2023-04-24T14:17:44;9.70;99.90
52869;DHT22;39100;53.480;6.158;2023-04-24T14:20:12;9.70;99.90
52869;DHT22;39100;53.480;6.158;2023-04-24T14:22:38;9.60;99.90
52869;DHT22;39100;53.480;6.158;2023-04-24T14:25:04;9.60;99.90
52869;DHT22;39100;53.480;6.158;2023-04-24T14:27:31;9.50;99.90
52869;DHT22;39100;53.480;6.158;2023-04-24T14:29:57;9.50;99.90
52869;DHT22;39100;53.480;6.158;2023-04-24T14:32:23;9.50;99.90
52869;DHT22;39100;53.480;6.158;2023-04-24T14:34:48;9.60;99.90
52869;DHT22;39100;53.480;6.158;2023-04-24T14:37:14;9.60;99.90
52869;DHT22;39100;53.480;6.158;2023-04-24T14:39:40;9.60;99.90
52869;DHT22;39100;53.480;6.158;2023-04-24T14:42:06;9.60;99.90
52869;DHT22;39100;53.480;6.158;2023-04-24T14:44:31;9.50;99.90
52869;DHT22;39100;53.480;6.158;2023-04-24T14:46:58;9.40;99.90
52869;DHT22;39100;53.480;6.158;2023-04-24T14:49:24;9.40;99.90
52869;DHT22;39100;53.480;6.158;2023-04-24T14:51:49;9.30;99.90
52869;DHT22;39100;53.480;6.158;2023-04-24T14:54:15;9.30;99.90
52869;DHT22;39100;53.480;6.158;2023-04-24T14:56:40;9.30;99.90
52869;DHT22;39100;53.480;6.158;2023-04-24T14:59:08;9.30;99.90
52869;DHT22;39100;53.480;6.158;2023-04-24T15:01:33;9.20;99.90
52869;DHT22;39100;53.480;6.158;2023-04-24T15:03:59;9.20;99.90
52869;DHT22;39100;53.480;6.158;2023-04-24T15:06:25;9.20;99.90
52869;DHT22;39100;53.480;6.158;2023-04-24T15:08:50;9.20;99.90
52869;DHT22;39100;53.480;6.158;2023-04-24T15:11:16;9.20;99.90
52869;DHT22;39100;53.480;6.158;2023-04-24T15:13:42;9.20;99.90
52869;DHT22;39100;53.480;6.158;2023-04-24T15:16:10;9.20;99.90
52869;DHT22;39100;53.480;6.158;2023-04-24T15:18:35;9.20;99.90
52869;DHT22;39100;53.480;6.158;2023-04-24T15:21:01;9.20;99.90
52869;DHT22;39100;53.480;6.158;2023-04-24T15:23:27;9.30;99.90
52869;DHT22;39100;53.480;6.158;2023-04-24T15:25:52;9.30;99.90
52869;DHT22;39100;53.480;6.158;2023-04-24T15:28:18;9.30;99.90
52869;DHT22;39100;53.480;6.158;2023-04-24T15:30:43;9.30;99.90
52869;DHT22;39100;53.480;6.158;2023-04-24T15:33:12;9.30;99.90
52869;DHT22;39100;53.480;6.158;2023-04-24T15:35:38;9.40;99.90
52869;DHT22;39100;53.480;6.158;2023-04-24T15:38:03;9.70;99.90
52869;DHT22;39100;53.480;6.158;2023-04-24T15:40:29;9.50;99.90
52869;DHT22;39100;53.480;6.158;2023-04-24T15:42:55;9.50;99.90